Time;durP1;ratioP1;P1;durP2;ratioP2;P2;SDS_P1;SDS_P2;PMS_P1;PMS_P2;Temp;Humidity;BMP_temperature;BMP_pressure;BME280_temperature;BME280_humidity;BME280_pressure;Samples;Min_cycle;Max_cycle;Signal;HPM_P1;HPM_P2
2022/11/07 00:00:12;;;;;;;1.50;0.88;;;;;;;;;;5106905;28;20052;-58
2022/11/07 00:02:59;;;;;;;1.13;0.60;;;;;;;;;;5090690;28;20048;-60
2022/11/07 00:05:46;;;;;;;1.10;0.80;;;;;;;;;;5108879;28;20081;-60
2022/11/07 00:08:15;;;;;;;1.27;0.68;;;;;;;;;;5109000;28;20526;-60
2022/11/07 00:11:11;;;;;;;1.50;0.68;;;;;;;;;;5108826;28;20371;-60
2022/11/07 00:14:18;;;;;;;1.23;0.57;;;;;;;;;;5071896;28;20043;-60
2022/11/07 00:16:59;;;;;;;0.85;0.50;;;;;;;;;;5012360;28;20590;-60
2022/11/07 00:19:35;;;;;;;1.83;0.73;;;;;;;;;;5108436;28;20035;-60
2022/11/07 00:25:46;;;;;;;1.42;0.73;;;;;;;;;;5102511;28;20047;-58
2022/11/07 00:28:16;;;;;;;1.20;0.50;;;;;;;;;;5034227;28;20035;-58
2022/11/07 00:37:40;;;;;;;1.80;0.82;;;;;;;;;;5080649;28;20483;-58
2022/11/07 00:40:07;;;;;;;1.35;0.60;;;;;;;;;;5108807;28;20103;-58
2022/11/07 00:42:57;;;;;;;1.30;0.73;;;;;;;;;;5107585;28;20062;-58
2022/11/07 00:52:15;;;;;;;1.25;0.75;;;;;;;;;;5094969;28;20125;-58
2022/11/07 00:54:50;;;;;;;1.40;0.73;;;;;;;;;;5007159;28;20089;-58
2022/11/07 00:57:44;;;;;;;;;;;;;;;;;;;;;
2022/11/07 01:09:36;;;;;;;0.95;0.60;;;;;;;;;;5083988;28;20485;-58
2022/11/07 01:12:08;;;;;;;2.45;0.85;;;;;;;;;;5073590;28;20454;-58
2022/11/07 01:14:58;;;;;;;1.23;0.85;;;;;;;;;;5091979;28;20025;-59
2022/11/07 01:17:50;;;;;;;0.90;0.55;;;;;;;;;;5091786;28;20040;-58
2022/11/07 01:20:48;;;;;;;;;;;;;;;;;;;;;
2022/11/07 01:23:21;;;;;;;1.92;0.70;;;;;;;;;;5014936;28;20443;-58
2022/11/07 01:38:00;;;;;;;1.80;1.00;;;;;;;;;;4981995;28;20039;-58
2022/11/07 01:43:40;;;;;;;;;;;;;;;;;;;;;
2022/11/07 01:46:21;;;;;;;0.77;0.45;;;;;;;;;;5091446;28;19932;-58
2022/11/07 01:49:09;;;;;;;1.67;0.80;;;;;;;;;;5091299;28;20084;-58
2022/11/07 01:52:10;;;;;;;;;;;;;;;;;;;;;
2022/11/07 01:55:05;;;;;;;1.90;0.70;;;;;;;;;;5085357;28;20049;-58
2022/11/07 02:01:03;;;;;;;1.52;0.80;;;;;;;;;;5102383;28;20074;-58
2022/11/07 02:03:47;;;;;;;2.10;1.13;;;;;;;;;;5110692;28;20050;-59
2022/11/07 02:06:35;;;;;;;1.38;0.40;;;;;;;;;;5110663;28;20027;-59
2022/11/07 02:09:13;;;;;;;2.47;1.25;;;;;;;;;;5092757;28;20084;-59
2022/11/07 02:12:12;;;;;;;0.95;0.57;;;;;;;;;;5093375;28;20028;-59
2022/11/07 02:14:59;;;;;;;1.35;0.65;;;;;;;;;;5058137;28;20058;-59
2022/11/07 02:18:04;;;;;;;2.30;1.00;;;;;;;;;;5111090;28;20031;-59
2022/11/07 02:27:06;;;;;;;;;;;;;;;;;;;;;
2022/11/07 02:29:45;;;;;;;2.83;0.70;;;;;;;;;;5037640;28;20064;-59
2022/11/07 02:38:16;;;;;;;1.90;1.00;;;;;;;;;;5048375;28;20391;-59
2022/11/07 02:40:53;;;;;;;1.20;0.60;;;;;;;;;;5048348;28;20052;-59
2022/11/07 02:47:02;;;;;;;1.98;1.10;;;;;;;;;;4989440;28;20035;-59
2022/11/07 02:49:58;;;;;;;1.38;0.82;;;;;;;;;;4998665;28;20043;-59
2022/11/07 02:52:43;;;;;;;2.05;1.20;;;;;;;;;;5110660;28;20051;-59
2022/11/07 02:58:31;;;;;;;1.92;0.80;;;;;;;;;;5099147;28;20040;-59
2022/11/07 03:01:25;;;;;;;;;;;;;;;;;;;;;
2022/11/07 03:04:15;;;;;;;2.03;0.70;;;;;;;;;;5110114;28;19947;-59
2022/11/07 03:13:16;;;;;;;1.17;0.60;;;;;;;;;;5098867;28;20070;-59
2022/11/07 03:16:02;;;;;;;1.50;0.70;;;;;;;;;;5109824;28;20412;-59
2022/11/07 03:18:47;;;;;;;1.40;0.88;;;;;;;;;;5109898;28;20042;-59
2022/11/07 03:21:24;;;;;;;1.27;0.75;;;;;;;;;;5109959;28;20039;-59
2022/11/07 03:24:03;;;;;;;1.85;0.93;;;;;;;;;;5109835;28;20099;-59
2022/11/07 03:29:39;;;;;;;3.63;0.80;;;;;;;;;;5101498;28;20066;-59
2022/11/07 03:32:24;;;;;;;;;;;;;;;;;;;;;
2022/11/07 03:35:18;;;;;;;2.00;0.98;;;;;;;;;;5103235;28;20060;-59
2022/11/07 03:37:53;;;;;;;1.67;0.77;;;;;;;;;;5109340;28;20024;-59
2022/11/07 03:40:56;;;;;;;1.35;0.45;;;;;;;;;;5090690;28;20093;-59
2022/11/07 03:44:06;;;;;;;1.33;0.63;;;;;;;;;;5109380;28;20024;-59
2022/11/07 03:46:57;;;;;;;2.35;1.27;;;;;;;;;;5007905;28;20102;-59
2022/11/07 03:49:46;;;;;;;3.92;0.88;;;;;;;;;;5008111;28;20031;-58
2022/11/07 03:52:40;;;;;;;1.85;1.05;;;;;;;;;;5007283;28;20038;-59
2022/11/07 03:55:25;;;;;;;6.65;0.88;;;;;;;;;;5007526;28;20045;-59
2022/11/07 04:08:14;;;;;;;1.27;0.65;;;;;;;;;;4949631;29;20035;-59
2022/11/07 04:10:58;;;;;;;1.00;0.50;;;;;;;;;;4961285;28;20065;-58
2022/11/07 04:19:25;;;;;;;2.22;0.90;;;;;;;;;;5109040;28;20031;-59
2022/11/07 04:22:10;;;;;;;;;;;;;;;;;;;;;
2022/11/07 04:24:59;;;;;;;3.00;1.02;;;;;;;;;;5066580;28;20068;-59
2022/11/07 04:30:56;;;;;;;2.47;0.93;;;;;;;;;;5004279;28;20131;-59
2022/11/07 04:42:37;;;;;;;1.10;0.50;;;;;;;;;;5056351;28;20120;-59
2022/11/07 04:51:03;;;;;;;1.45;0.68;;;;;;;;;;5018430;28;20029;-59
2022/11/07 04:53:44;;;;;;;1.02;0.50;;;;;;;;;;5066073;28;20043;-59
2022/11/07 04:59:26;;;;;;;2.92;0.80;;;;;;;;;;5059016;28;20034;-59
2022/11/07 05:05:00;;;;;;;2.28;1.00;;;;;;;;;;5063121;28;20535;-59
2022/11/07 05:14:20;;;;;;;;;;;;;;;;;;;;;
2022/11/07 05:16:57;;;;;;;0.90;0.43;;;;;;;;;;5078096;28;20116;-59
2022/11/07 05:19:28;;;;;;;1.45;0.70;;;;;;;;;;5061201;28;20492;-59
2022/11/07 05:31:38;;;;;;;0.80;0.40;;;;;;;;;;5059411;28;20035;-59
2022/11/07 05:34:39;;;;;;;3.45;0.55;;;;;;;;;;5076728;28;20032;-59
2022/11/07 05:37:09;;;;;;;;;;;;;;;;;;5076687;28;20039;-59
2022/11/07 05:40:19;;;;;;;1.13;0.50;;;;;;;;;;5057788;28;20346;-59
2022/11/07 05:43:09;;;;;;;2.10;1.20;;;;;;;;;;4975233;28;20159;-59
2022/11/07 05:45:57;;;;;;;2.08;0.82;;;;;;;;;;4975488;28;20089;-59
2022/11/07 05:48:40;;;;;;;1.67;0.88;;;;;;;;;;5058861;28;20154;-59
2022/11/07 05:51:38;;;;;;;2.03;0.88;;;;;;;;;;5049595;28;20028;-59
2022/11/07 05:54:26;;;;;;;2.60;0.93;;;;;;;;;;5069667;28;20457;-59
2022/11/07 06:00:11;;;;;;;1.70;0.68;;;;;;;;;;5076448;28;20050;-59
2022/11/07 06:02:47;;;;;;;;;;;;;;;;;;;;;
2022/11/07 06:05:52;;;;;;;2.08;1.10;;;;;;;;;;5064296;28;20036;-58
2022/11/07 06:08:39;;;;;;;1.73;0.65;;;;;;;;;;5076665;28;20036;-59
2022/11/07 06:11:31;;;;;;;4.63;3.50;;;;;;;;;;5062763;28;20063;-59
2022/11/07 06:17:25;;;;;;;2.63;2.17;;;;;;;;;;5076145;28;20031;-59
2022/11/07 06:23:18;;;;;;;3.28;1.00;;;;;;;;;;5069579;28;20036;-60
2022/11/07 06:26:06;;;;;;;1.75;0.90;;;;;;;;;;5072982;28;20115;-59
2022/11/07 06:31:49;;;;;;;2.13;1.20;;;;;;;;;;5034042;28;20099;-59
2022/11/07 06:34:15;;;;;;;2.00;0.90;;;;;;;;;;5076846;28;20037;-59
2022/11/07 06:37:02;;;;;;;2.00;1.00;;;;;;;;;;5058350;28;20054;-60
2022/11/07 06:46:55;;;;;;;3.38;1.17;;;;;;;;;;5013250;28;20029;-59
2022/11/07 06:49:21;;;;;;;3.20;1.25;;;;;;;;;;5076534;28;20474;-59
2022/11/07 06:55:23;;;;;;;2.63;1.67;;;;;;;;;;5075452;28;20075;-59
2022/11/07 06:58:05;;;;;;;2.05;1.45;;;;;;;;;;5051518;28;20032;-59
2022/11/07 07:00:52;;;;;;;1.33;0.77;;;;;;;;;;5078249;28;20389;-60
2022/11/07 07:03:39;;;;;;;;;;;;;;;;;;;;;
2022/11/07 07:06:38;;;;;;;2.60;1.05;;;;;;;;;;5096066;28;20044;-59
2022/11/07 07:09:32;;;;;;;3.10;1.23;;;;;;;;;;5025383;28;20482;-59
2022/11/07 07:12:43;;;;;;;;;;;;;;;;;;;;;
2022/11/07 07:18:46;;;;;;;3.20;1.77;;;;;;;;;;5061103;28;20050;-59
2022/11/07 07:27:20;;;;;;;3.55;1.70;;;;;;;;;;5033186;28;20503;-59
2022/11/07 07:29:58;;;;;;;5.70;1.70;;;;;;;;;;5031309;28;20038;-59
2022/11/07 07:32:51;;;;;;;2.92;1.58;;;;;;;;;;5016170;28;20057;-59
2022/11/07 07:35:35;;;;;;;4.43;2.33;;;;;;;;;;5014092;28;20034;-59
2022/11/07 07:38:03;;;;;;;6.97;3.80;;;;;;;;;;5013628;28;20034;-59
2022/11/07 07:41:01;;;;;;;;;;;;;;;;;;;;;
2022/11/07 07:43:32;;;;;;;5.18;1.73;;;;;;;;;;5048970;28;20380;-59
2022/11/07 07:46:46;;;;;;;3.50;2.53;;;;;;;;;;5051842;28;20037;-59
2022/11/07 07:49:38;;;;;;;4.53;1.48;;;;;;;;;;5050579;28;20044;-59
2022/11/07 07:52:30;;;;;;;6.28;2.03;;;;;;;;;;5037368;28;20063;-59
2022/11/07 07:55:04;;;;;;;4.53;2.47;;;;;;;;;;5051534;28;20542;-59
2022/11/07 07:58:05;;;;;;;24.63;11.82;;;;;;;;;;5052088;28;20037;-59
2022/11/07 08:03:59;;;;;;;29.02;12.02;;;;;;;;;;5073667;28;20074;-60
2022/11/07 08:09:35;;;;;;;4.22;2.47;;;;;;;;;;5074047;28;20055;-60
2022/11/07 08:15:27;;;;;;;;;;;;;;;;;;;;;
2022/11/07 08:18:12;;;;;;;7.40;1.77;;;;;;;;;;5065562;28;20032;-58
2022/11/07 08:24:19;;;;;;;5.63;1.88;;;;;;;;;;5018226;28;20021;-59
2022/11/07 08:27:39;;;;;;;3.50;1.30;;;;;;;;;;5056724;28;20354;-59
2022/11/07 08:30:30;;;;;;;3.45;1.10;;;;;;;;;;5073229;28;20508;-59
2022/11/07 08:33:04;;;;;;;2.00;1.08;;;;;;;;;;5073590;28;20042;-59
2022/11/07 08:38:59;;;;;;;2.70;1.10;;;;;;;;;;5050191;28;20043;-59
2022/11/07 08:41:31;;;;;;;;;;;;;;;;;;5074552;28;20474;-59
2022/11/07 08:44:23;;;;;;;3.20;1.67;;;;;;;;;;5073922;28;19950;-59
2022/11/07 08:47:17;;;;;;;4.22;1.67;;;;;;;;;;4965755;28;20497;-59
2022/11/07 08:50:34;;;;;;;;;;;;;;;;;;;;;
2022/11/07 08:53:24;;;;;;;1.13;0.88;;;;;;;;;;5069983;28;20143;-59
2022/11/07 08:56:14;;;;;;;3.97;1.63;;;;;;;;;;5074214;28;20103;-59
2022/11/07 09:01:53;;;;;;;1.88;1.15;;;;;;;;;;4982085;28;20109;-59
2022/11/07 09:04:46;;;;;;;2.65;1.25;;;;;;;;;;4991789;28;20045;-59
2022/11/07 09:08:01;;;;;;;;;;;;;;;;;;;;;
2022/11/07 09:13:34;;;;;;;4.68;1.48;;;;;;;;;;5011554;28;20475;-60
2022/11/07 09:16:39;;;;;;;4.97;1.88;;;;;;;;;;4995937;28;20033;-60
2022/11/07 09:19:18;;;;;;;5.00;1.50;;;;;;;;;;5052399;28;20102;-60
2022/11/07 09:22:06;;;;;;;2.92;1.33;;;;;;;;;;5054652;28;20040;-59
2022/11/07 09:28:03;;;;;;;;;;;;;;;;;;;;;
2022/11/07 09:33:59;;;;;;;2.75;1.30;;;;;;;;;;5043226;28;20032;-59
2022/11/07 09:36:35;;;;;;;4.60;1.23;;;;;;;;;;5058617;28;20062;-57
2022/11/07 09:42:32;;;;;;;4.03;1.27;;;;;;;;;;5077312;28;20394;-59
2022/11/07 09:45:17;;;;;;;4.05;1.10;;;;;;;;;;5077804;28;20084;-58
2022/11/07 09:51:13;;;;;;;2.05;0.68;;;;;;;;;;5077120;28;20029;-57
2022/11/07 09:53:58;;;;;;;4.32;0.77;;;;;;;;;;5061280;28;20029;-59
2022/11/07 09:59:41;;;;;;;1.15;0.47;;;;;;;;;;5057059;28;20048;-59
2022/11/07 10:05:59;;;;;;;4.82;1.20;;;;;;;;;;4994468;28;20086;-58
2022/11/07 10:08:29;;;;;;;1.48;0.50;;;;;;;;;;4994493;28;20038;-58
2022/11/07 10:14:04;;;;;;;3.83;0.90;;;;;;;;;;5096797;28;20043;-56
2022/11/07 10:20:10;;;;;;;2.78;0.80;;;;;;;;;;5033922;28;20032;-56
2022/11/07 10:22:57;;;;;;;4.15;0.85;;;;;;;;;;5051353;28;20040;-57
2022/11/07 10:25:31;;;;;;;4.38;1.05;;;;;;;;;;5037206;28;20116;-56
2022/11/07 10:28:21;;;;;;;2.20;0.90;;;;;;;;;;5053522;28;20029;-57
2022/11/07 10:31:00;;;;;;;1.98;0.70;;;;;;;;;;5053506;28;20179;-57
2022/11/07 10:34:00;;;;;;;;;;;;;;;;;;;;;
2022/11/07 10:36:47;;;;;;;4.55;0.75;;;;;;;;;;5053522;28;20457;-57
2022/11/07 10:39:41;;;;;;;0.82;0.32;;;;;;;;;;5054244;28;20090;-56
2022/11/07 10:45:31;;;;;;;7.72;0.95;;;;;;;;;;5040452;28;20506;-56
2022/11/07 10:51:17;;;;;;;2.15;0.93;;;;;;;;;;5053322;28;20036;-56
2022/11/07 10:53:55;;;;;;;4.72;0.95;;;;;;;;;;5075659;28;20040;-57
2022/11/07 10:56:55;;;;;;;1.42;0.77;;;;;;;;;;5095805;28;20392;-57
2022/11/07 10:59:33;;;;;;;2.85;1.25;;;;;;;;;;5095894;28;20074;-55
2022/11/07 11:02:35;;;;;;;3.53;0.95;;;;;;;;;;5072365;28;20066;-55
2022/11/07 11:05:21;;;;;;;2.83;1.20;;;;;;;;;;5012696;28;20030;-53
2022/11/07 11:11:14;;;;;;;5.93;1.92;;;;;;;;;;5077248;28;20020;-56
2022/11/07 11:16:54;;;;;;;1.90;0.52;;;;;;;;;;5096201;28;20036;-57
2022/11/07 11:19:23;;;;;;;5.22;0.95;;;;;;;;;;5075176;28;20044;-53
2022/11/07 11:25:17;;;;;;;7.00;0.68;;;;;;;;;;5012817;28;20030;-54
2022/11/07 11:27:55;;;;;;;5.47;1.00;;;;;;;;;;5013385;28;20054;-57
2022/11/07 11:34:04;;;;;;;1.50;0.47;;;;;;;;;;5049564;28;20055;-56
2022/11/07 11:37:04;;;;;;;2.92;0.73;;;;;;;;;;5015410;28;20061;-57
2022/11/07 11:42:56;;;;;;;;;;;;;;;;;;4993584;28;20065;-57
2022/11/07 11:45:47;;;;;;;1.77;0.52;;;;;;;;;;5077046;28;19904;-57
2022/11/07 11:49:01;;;;;;;;;;;;;;;;;;;;;
2022/11/07 11:58:15;;;;;;;1.73;0.88;;;;;;;;;;5078044;28;20035;-57
2022/11/07 12:01:08;;;;;;;3.10;0.85;;;;;;;;;;5095244;28;20088;-57
2022/11/07 12:10:25;;;;;;;3.95;1.08;;;;;;;;;;5094861;28;20043;-56
2022/11/07 12:13:10;;;;;;;2.33;0.80;;;;;;;;;;5094900;28;20123;-55
2022/11/07 12:22:18;;;;;;;2.10;0.77;;;;;;;;;;5051405;28;20086;-55
2022/11/07 12:28:15;;;;;;;2.97;0.63;;;;;;;;;;5094371;28;20423;-57
2022/11/07 12:31:02;;;;;;;2.65;1.05;;;;;;;;;;5076602;28;20035;-58
2022/11/07 12:37:13;;;;;;;1.70;0.70;;;;;;;;;;5049161;28;20028;-57
2022/11/07 12:40:17;;;;;;;;;;;;;;;;;;;;;
2022/11/07 12:43:05;;;;;;;2.00;1.08;;;;;;;;;;5094221;28;20023;-55
2022/11/07 12:46:07;;;;;;;3.63;1.33;;;;;;;;;;5075595;28;20056;-57
2022/11/07 12:49:04;;;;;;;5.18;1.55;;;;;;;;;;5075119;28;20112;-57
2022/11/07 12:58:34;;;;;;;;;;;;;;;;;;;;;
2022/11/07 13:04:49;;;;;;;;;;;;;;;;;;;;;
2022/11/07 13:07:38;;;;;;;1.25;0.47;;;;;;;;;;5033342;28;20029;-54
2022/11/07 13:10:18;;;;;;;;;;;;;;;;;;;;;
2022/11/07 13:13:28;;;;;;;1.00;0.45;;;;;;;;;;5096958;28;20393;-57
2022/11/07 13:16:15;;;;;;;2.37;0.60;;;;;;;;;;5015258;28;20049;-56
2022/11/07 13:19:04;;;;;;;;;;;;;;;;;;;;;
2022/11/07 13:21:43;;;;;;;2.50;0.68;;;;;;;;;;5082566;28;20036;-57
2022/11/07 13:24:20;;;;;;;1.17;0.60;;;;;;;;;;5078357;28;20105;-57
2022/11/07 13:26:51;;;;;;;2.50;0.70;;;;;;;;;;5097241;28;20036;-55
2022/11/07 13:29:43;;;;;;;1.63;0.82;;;;;;;;;;5097567;28;20024;-58
2022/11/07 13:32:23;;;;;;;;;;;;;;;;;;;;;
2022/11/07 13:35:33;;;;;;;1.50;0.63;;;;;;;;;;5092280;28;20114;-55
2022/11/07 13:38:10;;;;;;;2.13;1.52;;;;;;;;;;5097320;28;20093;-55
2022/11/07 13:40:46;;;;;;;3.53;0.77;;;;;;;;;;5078479;28;20051;-55
2022/11/07 13:43:37;;;;;;;1.13;0.60;;;;;;;;;;5097977;28;20422;-53
2022/11/07 13:49:08;;;;;;;2.83;0.85;;;;;;;;;;5097362;28;19927;-57
2022/11/07 13:52:01;;;;;;;1.70;0.70;;;;;;;;;;5096358;28;20028;-56
2022/11/07 13:54:52;;;;;;;1.95;0.70;;;;;;;;;;5098025;28;20161;-56
2022/11/07 13:57:38;;;;;;;1.65;1.08;;;;;;;;;;5097493;28;20035;-57
2022/11/07 14:00:33;;;;;;;2.22;0.60;;;;;;;;;;5097740;28;20057;-57
2022/11/07 14:03:19;;;;;;;1.10;0.60;;;;;;;;;;5096456;28;20049;-57
2022/11/07 14:05:55;;;;;;;2.40;0.98;;;;;;;;;;4994909;28;20050;-53
2022/11/07 14:08:56;;;;;;;1.40;0.50;;;;;;;;;;4995758;28;20038;-57
2022/11/07 14:11:41;;;;;;;;;;;;;;;;;;;;;
2022/11/07 14:14:36;;;;;;;3.67;1.00;;;;;;;;;;4934206;29;20050;-57
2022/11/07 14:17:22;;;;;;;1.70;0.60;;;;;;;;;;4903827;29;20046;-56
2022/11/07 14:19:57;;;;;;;2.95;0.85;;;;;;;;;;4937145;29;20399;-56
2022/11/07 14:25:38;;;;;;;1.10;0.50;;;;;;;;;;4937333;29;20042;-57
2022/11/07 14:31:28;;;;;;;2.80;0.90;;;;;;;;;;4937467;29;20459;-57
2022/11/07 14:34:20;;;;;;;3.08;0.60;;;;;;;;;;4994714;28;20552;-56
2022/11/07 14:40:26;;;;;;;3.65;0.82;;;;;;;;;;4985940;28;20066;-57
2022/11/07 14:46:25;;;;;;;2.28;0.80;;;;;;;;;;5095953;28;20031;-56
2022/11/07 14:49:09;;;;;;;4.30;0.93;;;;;;;;;;5060171;28;20043;-56
2022/11/07 14:51:48;;;;;;;2.55;1.13;;;;;;;;;;5059890;28;20024;-56
2022/11/07 14:54:37;;;;;;;2.90;0.82;;;;;;;;;;5074750;28;20127;-57
2022/11/07 14:57:41;;;;;;;2.67;0.73;;;;;;;;;;5096840;28;20487;-57
2022/11/07 15:01:06;;;;;;;2.72;1.05;;;;;;;;;;5095545;28;20020;-55
2022/11/07 15:03:39;;;;;;;2.20;0.85;;;;;;;;;;4993460;28;20034;-53
2022/11/07 15:07:08;;;;;;;2.25;0.65;;;;;;;;;;5003599;28;20054;-57
2022/11/07 15:09:24;;;;;;;2.30;0.83;;;;;;;;;;5084187;28;20040;-55
2022/11/07 15:11:59;;;;;;;3.42;1.13;;;;;;;;;;5095254;28;20246;-57
2022/11/07 15:14:49;;;;;;;1.95;1.02;;;;;;;;;;5076956;28;20089;-56
2022/11/07 15:17:46;;;;;;;1.40;0.70;;;;;;;;;;5080512;28;20043;-57
2022/11/07 15:23:29;;;;;;;2.70;1.05;;;;;;;;;;5083603;28;20085;-55
2022/11/07 15:26:24;;;;;;;;;;;;;;;;;;;;;
2022/11/07 15:28:53;;;;;;;1.40;0.57;;;;;;;;;;5090453;28;20040;-55
2022/11/07 15:31:25;;;;;;;1.42;0.88;;;;;;;;;;5094722;28;20028;-56
2022/11/07 15:33:55;;;;;;;1.45;0.77;;;;;;;;;;5076833;28;20043;-56
2022/11/07 15:39:35;;;;;;;3.92;1.35;;;;;;;;;;5095519;28;20051;-56
2022/11/07 15:42:19;;;;;;;3.38;0.98;;;;;;;;;;5078722;28;20123;-57
2022/11/07 15:44:49;;;;;;;2.70;0.88;;;;;;;;;;5075602;28;20027;-55
2022/11/07 15:47:33;;;;;;;4.30;0.90;;;;;;;;;;5095443;28;20077;-57
2022/11/07 15:50:04;;;;;;;2.17;0.90;;;;;;;;;;5075321;28;20500;-55
2022/11/07 15:52:53;;;;;;;4.38;1.25;;;;;;;;;;5094759;28;20055;-57
2022/11/07 15:55:37;;;;;;;3.72;1.20;;;;;;;;;;5094927;28;20039;-54
2022/11/07 16:01:48;;;;;;;1.92;0.82;;;;;;;;;;5020093;28;20485;-57
2022/11/07 16:04:22;;;;;;;2.17;1.15;;;;;;;;;;5032042;28;20475;-57
2022/11/07 16:10:27;;;;;;;4.32;1.55;;;;;;;;;;5011662;28;20033;-55
2022/11/07 16:13:20;;;;;;;;;;;;;;;;;;;;;
2022/11/07 16:16:08;;;;;;;5.18;1.45;;;;;;;;;;5008350;28;20030;-57
2022/11/07 16:18:39;;;;;;;3.53;1.23;;;;;;;;;;5012914;28;20048;-56
2022/11/07 16:21:27;;;;;;;;;;;;;;;;;;5012736;28;20042;-56
2022/11/07 16:24:33;;;;;;;2.35;1.05;;;;;;;;;;5011984;28;20370;-57
2022/11/07 16:27:05;;;;;;;4.20;1.42;;;;;;;;;;5048182;28;20074;-57
2022/11/07 16:32:45;;;;;;;3.03;1.48;;;;;;;;;;5089118;28;20051;-58
2022/11/07 16:35:38;;;;;;;3.13;1.33;;;;;;;;;;5082589;28;20082;-57
2022/11/07 16:38:35;;;;;;;4.80;1.42;;;;;;;;;;5101509;28;20381;-56
2022/11/07 16:41:54;;;;;;;2.63;1.17;;;;;;;;;;5101381;28;20024;-56
2022/11/07 16:45:01;;;;;;;4.82;1.55;;;;;;;;;;5018812;28;20034;-57
2022/11/07 16:47:39;;;;;;;4.70;2.25;;;;;;;;;;5101234;28;20426;-58
2022/11/07 16:50:34;;;;;;;5.45;2.97;;;;;;;;;;5101023;28;20024;-58
2022/11/07 16:53:07;;;;;;;7.57;3.08;;;;;;;;;;5019195;28;20542;-57
2022/11/07 16:55:47;;;;;;;8.43;3.30;;;;;;;;;;5103438;28;20040;-56
2022/11/07 17:05:13;;;;;;;5.70;3.22;;;;;;;;;;5098323;28;20493;-54
2022/11/07 17:08:14;;;;;;;6.93;3.28;;;;;;;;;;5017949;28;20066;-53
2022/11/07 17:10:55;;;;;;;9.50;2.92;;;;;;;;;;4959998;28;20039;-56
2022/11/07 17:13:27;;;;;;;21.15;12.07;;;;;;;;;;4958769;29;20213;-55
2022/11/07 17:19:10;;;;;;;10.20;7.97;;;;;;;;;;4986691;28;20534;-53
2022/11/07 17:21:49;;;;;;;13.32;9.20;;;;;;;;;;5017210;28;20085;-55
2022/11/07 17:24:25;;;;;;;10.40;6.10;;;;;;;;;;4996377;28;20045;-56
2022/11/07 17:27:26;;;;;;;7.35;5.63;;;;;;;;;;4956859;28;20499;-54
2022/11/07 17:29:55;;;;;;;;;;;;;;;;;;4985307;28;20034;-55
2022/11/07 17:35:48;;;;;;;3.80;2.42;;;;;;;;;;5018092;28;20037;-57
2022/11/07 17:41:21;;;;;;;2.50;1.58;;;;;;;;;;5079984;28;20047;-56
2022/11/07 17:44:00;;;;;;;4.00;1.67;;;;;;;;;;5080694;28;20377;-57
2022/11/07 17:46:54;;;;;;;2.65;1.20;;;;;;;;;;5076596;28;20035;-55
2022/11/07 17:49:34;;;;;;;3.10;1.73;;;;;;;;;;5077119;28;20378;-56
2022/11/07 17:52:30;;;;;;;2.50;1.20;;;;;;;;;;5077013;28;20025;-54
2022/11/07 17:55:23;;;;;;;9.20;2.40;;;;;;;;;;5077202;28;20032;-57
2022/11/07 17:58:31;;;;;;;4.67;1.70;;;;;;;;;;5060972;28;20039;-57
2022/11/07 18:01:06;;;;;;;4.63;1.50;;;;;;;;;;4975735;28;20266;-55
2022/11/07 18:03:42;;;;;;;3.92;1.63;;;;;;;;;;4977420;28;20038;-55
2022/11/07 18:12:25;;;;;;;5.90;2.08;;;;;;;;;;5075677;28;20115;-55
2022/11/07 18:15:16;;;;;;;1.63;1.00;;;;;;;;;;5058469;28;20477;-56
2022/11/07 18:21:03;;;;;;;6.95;1.92;;;;;;;;;;4974855;28;20401;-55
2022/11/07 18:24:11;;;;;;;10.40;4.95;;;;;;;;;;5056954;28;20063;-57
2022/11/07 18:26:44;;;;;;;15.13;7.53;;;;;;;;;;5058478;28;20040;-55
2022/11/07 18:29:18;;;;;;;14.68;7.15;;;;;;;;;;5076361;28;20067;-56
2022/11/07 18:32:00;;;;;;;8.75;3.17;;;;;;;;;;5058424;28;20037;-56
2022/11/07 18:37:58;;;;;;;;;;;;;;;;;;;;;
2022/11/07 18:46:57;;;;;;;2.05;1.23;;;;;;;;;;4917491;29;20043;-57
2022/11/07 18:49:59;;;;;;;1.92;1.20;;;;;;;;;;4957366;28;20031;-56
2022/11/07 18:56:22;;;;;;;2.10;1.05;;;;;;;;;;5075691;28;20120;-56
2022/11/07 18:58:37;;;;;;;2.95;1.60;;;;;;;;;;5053001;28;20111;-56
2022/11/07 19:01:05;;;;;;;3.42;1.55;;;;;;;;;;5052646;28;20028;-54
2022/11/07 19:03:54;;;;;;;4.40;1.77;;;;;;;;;;5057610;28;20489;-57
2022/11/07 19:07:15;;;;;;;2.72;1.30;;;;;;;;;;5091180;28;20048;-55
2022/11/07 19:09:35;;;;;;;2.97;1.10;;;;;;;;;;5081748;28;20035;-53
2022/11/07 19:15:06;;;;;;;5.85;1.90;;;;;;;;;;5049566;28;20159;-57
2022/11/07 19:18:01;;;;;;;5.60;2.05;;;;;;;;;;5094921;28;20410;-56
2022/11/07 19:20:54;;;;;;;;;;;;;;;;;;;;;
2022/11/07 19:23:58;;;;;;;4.03;2.03;;;;;;;;;;5094733;28;20031;-57
2022/11/07 19:26:47;;;;;;;3.55;1.95;;;;;;;;;;5094766;28;20377;-55
2022/11/07 19:35:39;;;;;;;4.57;3.00;;;;;;;;;;5089567;28;20093;-58
2022/11/07 19:38:26;;;;;;;;;;;;;;;;;;;;;
2022/11/07 19:41:11;;;;;;;6.15;2.45;;;;;;;;;;5094896;28;20381;-55
2022/11/07 19:43:38;;;;;;;6.68;3.15;;;;;;;;;;5094431;28;20024;-53
2022/11/07 19:46:28;;;;;;;5.13;2.53;;;;;;;;;;5093560;28;20529;-56
2022/11/07 19:49:17;;;;;;;2.90;1.95;;;;;;;;;;5095167;28;20028;-54
2022/11/07 19:51:54;;;;;;;5.10;2.08;;;;;;;;;;5094404;28;20446;-55
2022/11/07 19:54:25;;;;;;;3.35;1.73;;;;;;;;;;5075218;28;20055;-57
2022/11/07 19:57:21;;;;;;;;;;;;;;;;;;;;;
2022/11/07 20:00:20;;;;;;;;;;;;;;;;;;;;;
2022/11/07 20:02:51;;;;;;;5.10;1.27;;;;;;;;;;5090896;28;20039;-54
2022/11/07 20:08:29;;;;;;;2.92;1.50;;;;;;;;;;5029465;28;20113;-56
2022/11/07 20:14:40;;;;;;;3.28;1.83;;;;;;;;;;5073998;28;20517;-57
2022/11/07 20:17:12;;;;;;;6.03;3.58;;;;;;;;;;5074648;28;20020;-56
2022/11/07 20:20:10;;;;;;;3.33;1.75;;;;;;;;;;5051134;28;20037;-56
2022/11/07 20:22:40;;;;;;;4.07;1.67;;;;;;;;;;5073777;28;20032;-55
2022/11/07 20:25:32;;;;;;;4.65;2.85;;;;;;;;;;5070754;28;20035;-56
2022/11/07 20:28:13;;;;;;;3.00;1.77;;;;;;;;;;5044154;28;20033;-54
2022/11/07 20:31:03;;;;;;;3.03;1.55;;;;;;;;;;5054189;28;20425;-55
2022/11/07 20:36:57;;;;;;;;;;;;;;;;;;;;;
2022/11/07 20:39:46;;;;;;;4.90;1.83;;;;;;;;;;5074911;28;20377;-54
2022/11/07 20:54:28;;;;;;;2.63;1.48;;;;;;;;;;4972996;28;20038;-55
2022/11/07 20:57:37;;;;;;;4.43;1.95;;;;;;;;;;4997438;28;20037;-54
2022/11/07 21:00:18;;;;;;;5.03;2.13;;;;;;;;;;5055433;28;20033;-56
2022/11/07 21:03:19;;;;;;;2.78;1.33;;;;;;;;;;5074764;28;20032;-54
2022/11/07 21:08:48;;;;;;;4.05;1.88;;;;;;;;;;5094304;28;20040;-55
2022/11/07 21:11:50;;;;;;;8.73;2.65;;;;;;;;;;5076150;28;20039;-53
2022/11/07 21:17:41;;;;;;;3.72;1.98;;;;;;;;;;5094458;28;20053;-55
2022/11/07 21:20:18;;;;;;;4.45;1.92;;;;;;;;;;5032848;28;20032;-52
2022/11/07 21:23:06;;;;;;;2.72;1.73;;;;;;;;;;5098608;28;20377;-54
2022/11/07 21:25:47;;;;;;;4.90;3.20;;;;;;;;;;5068802;28;20035;-52
2022/11/07 21:28:15;;;;;;;;;;;;;;;;;;5096431;28;20461;-54
2022/11/07 21:31:10;;;;;;;4.75;2.60;;;;;;;;;;5064857;28;19904;-55
2022/11/07 21:33:52;;;;;;;;;;;;;;;;;;;;;
2022/11/07 21:39:55;;;;;;;6.28;2.92;;;;;;;;;;5097089;28;20046;-51
2022/11/07 21:45:28;;;;;;;2.97;1.90;;;;;;;;;;4990567;28;20049;-56
2022/11/07 21:48:10;;;;;;;;;;;;;;;;;;;;;
2022/11/07 21:53:47;;;;;;;4.32;2.03;;;;;;;;;;4983344;28;20045;-55
2022/11/07 21:56:21;;;;;;;4.05;2.33;;;;;;;;;;5034469;28;20264;-55
2022/11/07 21:59:22;;;;;;;6.07;2.83;;;;;;;;;;5017433;28;20096;-57
2022/11/07 22:01:57;;;;;;;9.77;3.88;;;;;;;;;;5024170;28;20100;-54
2022/11/07 22:07:33;;;;;;;;;;;;;;;;;;5040070;28;20117;-56
2022/11/07 22:10:18;;;;;;;6.57;3.17;;;;;;;;;;5044765;28;19917;-56
2022/11/07 22:12:59;;;;;;;3.17;2.40;;;;;;;;;;5026874;28;20491;-52
2022/11/07 22:15:34;;;;;;;3.47;2.60;;;;;;;;;;5028528;28;20491;-54
2022/11/07 22:18:21;;;;;;;3.75;2.58;;;;;;;;;;5056076;28;20045;-55
2022/11/07 22:24:38;;;;;;;6.22;2.63;;;;;;;;;;5110908;28;20097;-54
2022/11/07 22:27:23;;;;;;;5.80;3.03;;;;;;;;;;5107209;28;20062;-56
2022/11/07 22:30:05;;;;;;;4.70;3.92;;;;;;;;;;5110983;28;20024;-55
2022/11/07 22:32:53;;;;;;;5.38;3.67;;;;;;;;;;5109800;28;20039;-58
2022/11/07 22:35:37;;;;;;;5.47;3.33;;;;;;;;;;5109589;28;20029;-53
2022/11/07 22:38:31;;;;;;;5.20;3.05;;;;;;;;;;5109114;28;20066;-53
2022/11/07 22:41:17;;;;;;;2.70;2.05;;;;;;;;;;5110639;28;20050;-55
2022/11/07 22:44:24;;;;;;;3.63;2.22;;;;;;;;;;5109849;28;20079;-56
2022/11/07 22:47:16;;;;;;;4.90;2.97;;;;;;;;;;5109156;28;20057;-56
2022/11/07 22:56:04;;;;;;;4.75;3.45;;;;;;;;;;5109486;28;20062;-52
2022/11/07 23:01:38;;;;;;;4.85;2.80;;;;;;;;;;5096141;28;20079;-53
2022/11/07 23:04:25;;;;;;;3.80;2.55;;;;;;;;;;5109241;28;20040;-57
2022/11/07 23:07:04;;;;;;;5.30;3.17;;;;;;;;;;5074619;28;20028;-54
2022/11/07 23:10:24;;;;;;;6.78;3.08;;;;;;;;;;5109288;28;20047;-54
2022/11/07 23:13:03;;;;;;;4.68;3.28;;;;;;;;;;5007228;28;20122;-55
2022/11/07 23:18:51;;;;;;;4.75;3.35;;;;;;;;;;5109572;28;20120;-53
2022/11/07 23:21:47;;;;;;;8.30;4.40;;;;;;;;;;5108743;28;20024;-54
2022/11/07 23:24:34;;;;;;;4.75;4.22;;;;;;;;;;5085187;28;20047;-55
2022/11/07 23:27:13;;;;;;;7.15;4.90;;;;;;;;;;5089837;28;20024;-53
2022/11/07 23:30:30;;;;;;;5.78;4.20;;;;;;;;;;5105672;28;20365;-55
2022/11/07 23:33:38;;;;;;;;;;;;;;;;;;;;;
2022/11/07 23:36:42;;;;;;;;;;;;;;;;;;;;;
2022/11/07 23:42:25;;;;;;;5.97;4.55;;;;;;;;;;5100718;28;20063;-53
2022/11/07 23:51:10;;;;;;;7.10;6.38;;;;;;;;;;5109378;28;20034;-56
2022/11/07 23:57:06;;;;;;;5.03;4.30;;;;;;;;;;5007522;28;20103;-55
